Drumbo, Canada
Current Conditions -  °F | °C
As of 12:56 AM on Thursday 18 Dec 2014 (Local Time) from CYKF Reporting Station
Light Snow Light Snow  
Wind Chill: 18°   Ceiling: 1100
Heat Index: 28°   Visibility: 9mi
Dew Point: 27°   Wind: 13mph
Humidity: 93%   Direction: 270°W
Pressure: 29.99"   Gusts: 20mph
Location:  43.23°N, 80.55°W
Report Text: CYKF 180556Z AUTO 27011G17KT 9SM -SN OVC011 M02/M03 A2999 RMK ICG INTMT SLP169
Loading
Personal Weather Stations






























Interactive Weather Map New forecast layout! Learn more

10-Day Weather Forecast

Advertisements
Track Severe Weather on mobile